Estación Meteorológica Peña el Pijo (Robertgarden) [ 12/14/19 08:40:35 CET ]

Fecha Hora Presion(HPa) Temp (°C) Humedad % Rocio (°C) Viento ( m/s) Direccion Lluvia 1Hora(mm) Lluvia 24H(mm) LLuvia Total(mm)
2019-Aug-08 01:01:48 1010.900 18.6 45 6.4         363.34
2019-Aug-08 02:01:56 1010.900 19.3 40 5.4         363.34
2019-Aug-08 03:01:41 1010.200 19.1 40 5.2         363.34
2019-Aug-08 04:03:10 1010.100 17.7 43 4.9         363.34
2019-Aug-08 05:01:53 1010.000 16.6 49 5.8         363.34
2019-Aug-08 06:01:48 1010.300 15.5 54 6.2         363.34
2019-Aug-08 07:01:49 1010.400 13.8 59 5.9         363.34
2019-Aug-08 08:01:52 1010.300 13.4 64 6.7         363.34
2019-Aug-08 09:01:45 1010.300 19.4 54 9.8         363.34
2019-Aug-08 10:01:48 1010.500 24.9 47 12.8         363.34
2019-Aug-08 11:01:44 1010.500 29.0 37 12.8         363.34
2019-Aug-08 12:01:39 1010.800 31.2 28 10.4         363.34
2019-Aug-08 13:01:49 1010.500 34.9 24 11.1         363.34
2019-Aug-08 14:01:56 1009.900 37.3 19 9.6         363.34
2019-Aug-08 15:01:51 1009.400 38.8 18 9.8         363.34
2019-Aug-08 16:02:01 1009.600 37.9 10 1.1         363.34
2019-Aug-08 17:01:48 1009.200 36.4 12 1.9         363.34
2019-Aug-08 18:01:46 1009.200 35.9 13 2.5         363.34
2019-Aug-08 19:01:49 1009.500 34.7 14 2.6         363.34
2019-Aug-08 20:01:50 1009.700 32.8 16 3.1         363.34
2019-Aug-08 21:01:45 1009.900 29.3 21 4.6         363.34
2019-Aug-08 22:01:42 1010.700 23.3 33 6.0         363.34
2019-Aug-08 23:01:41 1011.200 19.9 42 6.6         363.34

Temperatura Máxima:38°    Temperatura Mínima:13°
Presión Máxima:1011.200 Hpa    Presión Mínima:1009.200 Hpa


Volver